sensor_id;sensor_type;location;lat;lon;timestamp;temperature;humidity
27368;DHT22;14839;48.106;11.618;2023-08-24T04:01:57;21.10;94.60
27368;DHT22;14839;48.106;11.618;2023-08-24T04:04:27;21.10;94.60
27368;DHT22;14839;48.106;11.618;2023-08-24T04:06:52;21.10;94.60
27368;DHT22;14839;48.106;11.618;2023-08-24T04:09:18;21.10;94.60
27368;DHT22;14839;48.106;11.618;2023-08-24T04:11:44;21.10;94.60
27368;DHT22;14839;48.106;11.618;2023-08-24T04:14:09;21.00;94.60
27368;DHT22;14839;48.106;11.618;2023-08-24T04:16:35;21.00;94.60
27368;DHT22;14839;48.106;11.618;2023-08-24T04:19:00;21.00;94.60
27368;DHT22;14839;48.106;11.618;2023-08-24T04:21:26;21.00;94.60
27368;DHT22;14839;48.106;11.618;2023-08-24T04:23:51;21.00;94.60
27368;DHT22;14839;48.106;11.618;2023-08-24T04:26:17;21.00;94.60
27368;DHT22;14839;48.106;11.618;2023-08-24T04:28:42;21.00;94.60
27368;DHT22;14839;48.106;11.618;2023-08-24T04:31:08;21.00;94.60
27368;DHT22;14839;48.106;11.618;2023-08-24T04:33:34;21.00;94.60
27368;DHT22;14839;48.106;11.618;2023-08-24T04:35:59;21.10;94.60
27368;DHT22;14839;48.106;11.618;2023-08-24T04:38:25;21.10;94.60
27368;DHT22;14839;48.106;11.618;2023-08-24T04:40:54;21.10;94.60
27368;DHT22;14839;48.106;11.618;2023-08-24T04:43:20;21.20;94.60
27368;DHT22;14839;48.106;11.618;2023-08-24T04:45:51;21.20;94.60
27368;DHT22;14839;48.106;11.618;2023-08-24T04:48:20;21.30;94.60
27368;DHT22;14839;48.106;11.618;2023-08-24T04:50:46;21.30;94.60
27368;DHT22;14839;48.106;11.618;2023-08-24T04:53:16;21.30;94.60
27368;DHT22;14839;48.106;11.618;2023-08-24T04:55:42;21.40;94.60
27368;DHT22;14839;48.106;11.618;2023-08-24T04:58:08;21.40;94.60
27368;DHT22;14839;48.106;11.618;2023-08-24T05:00:34;21.50;94.60
27368;DHT22;14839;48.106;11.618;2023-08-24T05:03:01;21.50;94.60
27368;DHT22;14839;48.106;11.618;2023-08-24T05:05:29;21.60;94.60
27368;DHT22;14839;48.106;11.618;2023-08-24T05:07:55;21.80;94.60
27368;DHT22;14839;48.106;11.618;2023-08-24T05:10:21;21.90;94.60
27368;DHT22;14839;48.106;11.618;2023-08-24T05:12:46;22.10;94.60
27368;DHT22;14839;48.106;11.618;2023-08-24T05:15:12;22.30;94.60
27368;DHT22;14839;48.106;11.618;2023-08-24T05:17:39;22.60;94.60
27368;DHT22;14839;48.106;11.618;2023-08-24T05:20:05;22.90;94.60
27368;DHT22;14839;48.106;11.618;2023-08-24T05:22:31;23.30;94.60
27368;DHT22;14839;48.106;11.618;2023-08-24T05:24:57;23.80;94.60
27368;DHT22;14839;48.106;11.618;2023-08-24T05:27:22;24.30;94.60
27368;DHT22;14839;48.106;11.618;2023-08-24T05:29:48;24.80;93.50
27368;DHT22;14839;48.106;11.618;2023-08-24T05:32:13;25.20;92.60
27368;DHT22;14839;48.106;11.618;2023-08-24T05:34:39;25.70;91.00
27368;DHT22;14839;48.106;11.618;2023-08-24T05:37:04;26.00;90.10
27368;DHT22;14839;48.106;11.618;2023-08-24T05:39:30;26.50;87.40
27368;DHT22;14839;48.106;11.618;2023-08-24T05:41:55;26.40;86.50
27368;DHT22;14839;48.106;11.618;2023-08-24T05:44:21;26.10;88.60
27368;DHT22;14839;48.106;11.618;2023-08-24T05:46:47;26.40;88.00
27368;DHT22;14839;48.106;11.618;2023-08-24T05:49:13;26.00;88.70
27368;DHT22;14839;48.106;11.618;2023-08-24T05:51:38;26.20;88.70
27368;DHT22;14839;48.106;11.618;2023-08-24T05:54:04;25.80;90.20
27368;DHT22;14839;48.106;11.618;2023-08-24T05:56:30;25.90;90.50
27368;DHT22;14839;48.106;11.618;2023-08-24T05:58:57;26.40;89.60
27368;DHT22;14839;48.106;11.618;2023-08-24T06:01:23;26.80;87.70
27368;DHT22;14839;48.106;11.618;2023-08-24T06:03:50;27.30;86.50
27368;DHT22;14839;48.106;11.618;2023-08-24T06:06:15;27.90;83.80
27368;DHT22;14839;48.106;11.618;2023-08-24T06:08:42;28.20;82.10
27368;DHT22;14839;48.106;11.618;2023-08-24T06:11:07;28.50;81.40
27368;DHT22;14839;48.106;11.618;2023-08-24T06:13:33;28.20;81.70
27368;DHT22;14839;48.106;11.618;2023-08-24T06:15:59;28.80;79.90
27368;DHT22;14839;48.106;11.618;2023-08-24T06:18:25;28.60;80.60
27368;DHT22;14839;48.106;11.618;2023-08-24T06:20:51;28.60;80.80
27368;DHT22;14839;48.106;11.618;2023-08-24T06:23:17;28.80;80.30
27368;DHT22;14839;48.106;11.618;2023-08-24T06:25:43;29.10;78.20
27368;DHT22;14839;48.106;11.618;2023-08-24T06:28:09;29.10;79.40
27368;DHT22;14839;48.106;11.618;2023-08-24T06:30:39;29.20;78.10
27368;DHT22;14839;48.106;11.618;2023-08-24T06:33:05;29.60;78.10
27368;DHT22;14839;48.106;11.618;2023-08-24T06:35:32;30.40;75.20
27368;DHT22;14839;48.106;11.618;2023-08-24T06:37:58;30.60;74.00
27368;DHT22;14839;48.106;11.618;2023-08-24T06:40:24;31.00;71.50
27368;DHT22;14839;48.106;11.618;2023-08-24T06:42:49;30.60;73.10
27368;DHT22;14839;48.106;11.618;2023-08-24T06:45:15;30.10;73.60
27368;DHT22;14839;48.106;11.618;2023-08-24T06:47:42;30.70;72.10
27368;DHT22;14839;48.106;11.618;2023-08-24T06:50:08;30.70;71.90
27368;DHT22;14839;48.106;11.618;2023-08-24T06:52:33;31.20;69.40
27368;DHT22;14839;48.106;11.618;2023-08-24T06:54:59;30.70;70.40
27368;DHT22;14839;48.106;11.618;2023-08-24T06:57:25;30.80;70.00
27368;DHT22;14839;48.106;11.618;2023-08-24T06:59:51;29.60;72.50
27368;DHT22;14839;48.106;11.618;2023-08-24T07:02:17;29.80;74.90
27368;DHT22;14839;48.106;11.618;2023-08-24T07:04:43;30.90;70.40
27368;DHT22;14839;48.106;11.618;2023-08-24T07:07:09;31.20;69.70
27368;DHT22;14839;48.106;11.618;2023-08-24T07:09:35;31.40;69.50
27368;DHT22;14839;48.106;11.618;2023-08-24T07:12:04;31.30;70.30
27368;DHT22;14839;48.106;11.618;2023-08-24T07:14:33;31.30;67.60
27368;DHT22;14839;48.106;11.618;2023-08-24T07:16:58;31.30;69.10
27368;DHT22;14839;48.106;11.618;2023-08-24T07:19:24;31.30;69.40
27368;DHT22;14839;48.106;11.618;2023-08-24T07:21:50;31.40;68.00
27368;DHT22;14839;48.106;11.618;2023-08-24T07:24:17;31.50;67.90
27368;DHT22;14839;48.106;11.618;2023-08-24T07:26:44;30.30;70.90
27368;DHT22;14839;48.106;11.618;2023-08-24T07:29:10;29.40;76.30
27368;DHT22;14839;48.106;11.618;2023-08-24T07:31:36;29.30;76.00
27368;DHT22;14839;48.106;11.618;2023-08-24T07:34:02;29.90;74.60
27368;DHT22;14839;48.106;11.618;2023-08-24T07:36:31;30.70;71.20
27368;DHT22;14839;48.106;11.618;2023-08-24T07:38:58;30.50;71.20
27368;DHT22;14839;48.106;11.618;2023-08-24T07:41:23;30.60;71.60
27368;DHT22;14839;48.106;11.618;2023-08-24T07:43:49;30.00;73.70
27368;DHT22;14839;48.106;11.618;2023-08-24T07:46:14;29.70;74.30
27368;DHT22;14839;48.106;11.618;2023-08-24T07:48:40;30.20;73.40
27368;DHT22;14839;48.106;11.618;2023-08-24T07:51:06;30.10;73.60
27368;DHT22;14839;48.106;11.618;2023-08-24T07:53:32;30.10;73.90
27368;DHT22;14839;48.106;11.618;2023-08-24T07:55:58;30.50;72.20
27368;DHT22;14839;48.106;11.618;2023-08-24T07:58:25;30.70;72.10
27368;DHT22;14839;48.106;11.618;2023-08-24T08:00:51;31.00;73.60
27368;DHT22;14839;48.106;11.618;2023-08-24T08:03:20;31.40;69.40
27368;DHT22;14839;48.106;11.618;2023-08-24T08:05:46;31.20;70.40
27368;DHT22;14839;48.106;11.618;2023-08-24T08:08:16;31.60;70.90
27368;DHT22;14839;48.106;11.618;2023-08-24T08:10:42;31.70;68.50
27368;DHT22;14839;48.106;11.618;2023-08-24T08:13:08;31.40;69.10
27368;DHT22;14839;48.106;11.618;2023-08-24T08:15:36;31.60;70.30
27368;DHT22;14839;48.106;11.618;2023-08-24T08:18:03;31.80;68.50
27368;DHT22;14839;48.106;11.618;2023-08-24T08:20:30;31.60;70.40
27368;DHT22;14839;48.106;11.618;2023-08-24T08:22:55;31.70;69.70
27368;DHT22;14839;48.106;11.618;2023-08-24T08:25:21;30.90;71.00
27368;DHT22;14839;48.106;11.618;2023-08-24T08:27:48;31.10;72.40
27368;DHT22;14839;48.106;11.618;2023-08-24T08:30:14;31.60;69.50
27368;DHT22;14839;48.106;11.618;2023-08-24T08:32:40;30.80;71.90
27368;DHT22;14839;48.106;11.618;2023-08-24T08:35:07;31.20;71.60
27368;DHT22;14839;48.106;11.618;2023-08-24T08:37:33;31.70;70.30
27368;DHT22;14839;48.106;11.618;2023-08-24T08:39:59;31.60;68.30
27368;DHT22;14839;48.106;11.618;2023-08-24T08:42:24;31.70;71.30
27368;DHT22;14839;48.106;11.618;2023-08-24T08:44:50;31.90;68.90
27368;DHT22;14839;48.106;11.618;2023-08-24T08:47:20;32.70;66.80
27368;DHT22;14839;48.106;11.618;2023-08-24T08:49:48;32.70;66.20
27368;DHT22;14839;48.106;11.618;2023-08-24T08:52:14;33.20;64.60
27368;DHT22;14839;48.106;11.618;2023-08-24T08:54:40;33.50;64.10
27368;DHT22;14839;48.106;11.618;2023-08-24T08:57:06;33.80;64.10
27368;DHT22;14839;48.106;11.618;2023-08-24T08:59:32;34.40;61.60
27368;DHT22;14839;48.106;11.618;2023-08-24T09:02:01;33.90;61.40
27368;DHT22;14839;48.106;11.618;2023-08-24T09:04:31;34.40;61.70
27368;DHT22;14839;48.106;11.618;2023-08-24T09:06:57;33.80;61.30
27368;DHT22;14839;48.106;11.618;2023-08-24T09:09:24;33.40;62.80
27368;DHT22;14839;48.106;11.618;2023-08-24T09:11:50;32.70;64.30
27368;DHT22;14839;48.106;11.618;2023-08-24T09:14:16;32.90;65.30
27368;DHT22;14839;48.106;11.618;2023-08-24T09:16:42;32.80;65.00
27368;DHT22;14839;48.106;11.618;2023-08-24T09:19:11;32.60;65.90
27368;DHT22;14839;48.106;11.618;2023-08-24T09:21:38;33.20;64.70
27368;DHT22;14839;48.106;11.618;2023-08-24T09:24:05;33.60;63.70
27368;DHT22;14839;48.106;11.618;2023-08-24T09:26:32;33.10;63.40
27368;DHT22;14839;48.106;11.618;2023-08-24T09:28:59;32.90;64.60
27368;DHT22;14839;48.106;11.618;2023-08-24T09:31:35;33.70;65.20
27368;DHT22;14839;48.106;11.618;2023-08-24T09:34:02;34.30;62.00
27368;DHT22;14839;48.106;11.618;2023-08-24T09:36:34;33.70;62.80
27368;DHT22;14839;48.106;11.618;2023-08-24T09:39:00;33.70;61.60
27368;DHT22;14839;48.106;11.618;2023-08-24T09:41:39;32.60;65.20
27368;DHT22;14839;48.106;11.618;2023-08-24T09:44:05;32.80;66.20
27368;DHT22;14839;48.106;11.618;2023-08-24T09:46:31;33.50;62.20
27368;DHT22;14839;48.106;11.618;2023-08-24T09:48:56;33.90;58.50
27368;DHT22;14839;48.106;11.618;2023-08-24T09:51:26;33.30;60.40
27368;DHT22;14839;48.106;11.618;2023-08-24T09:53:57;33.90;60.20
27368;DHT22;14839;48.106;11.618;2023-08-24T09:56:28;33.00;61.40
27368;DHT22;14839;48.106;11.618;2023-08-24T09:58:54;33.10;62.30
27368;DHT22;14839;48.106;11.618;2023-08-24T10:01:21;33.40;62.30
27368;DHT22;14839;48.106;11.618;2023-08-24T10:03:51;33.10;62.00
27368;DHT22;14839;48.106;11.618;2023-08-24T10:06:19;33.50;63.10
27368;DHT22;14839;48.106;11.618;2023-08-24T10:08:55;34.00;59.80
27368;DHT22;14839;48.106;11.618;2023-08-24T10:11:26;33.30;62.00
27368;DHT22;14839;48.106;11.618;2023-08-24T10:14:00;33.00;63.70
27368;DHT22;14839;48.106;11.618;2023-08-24T10:16:30;32.70;64.60
27368;DHT22;14839;48.106;11.618;2023-08-24T10:18:55;32.60;64.70
27368;DHT22;14839;48.106;11.618;2023-08-24T10:21:23;32.20;64.70
27368;DHT22;14839;48.106;11.618;2023-08-24T10:23:52;31.80;63.80
27368;DHT22;14839;48.106;11.618;2023-08-24T10:26:18;32.10;64.00
27368;DHT22;14839;48.106;11.618;2023-08-24T10:28:45;33.00;62.20
27368;DHT22;14839;48.106;11.618;2023-08-24T10:31:11;32.60;62.80
27368;DHT22;14839;48.106;11.618;2023-08-24T10:33:38;33.00;59.80
27368;DHT22;14839;48.106;11.618;2023-08-24T10:36:07;32.80;61.30
27368;DHT22;14839;48.106;11.618;2023-08-24T10:38:39;33.00;61.70
27368;DHT22;14839;48.106;11.618;2023-08-24T10:41:06;33.50;59.40
27368;DHT22;14839;48.106;11.618;2023-08-24T10:43:38;33.80;59.10
27368;DHT22;14839;48.106;11.618;2023-08-24T10:46:11;33.60;59.80
27368;DHT22;14839;48.106;11.618;2023-08-24T10:51:18;34.10;59.20
27368;DHT22;14839;48.106;11.618;2023-08-24T10:56:18;33.30;61.60
27368;DHT22;14839;48.106;11.618;2023-08-24T10:58:45;33.20;57.50
27368;DHT22;14839;48.106;11.618;2023-08-24T11:01:18;33.30;56.00
27368;DHT22;14839;48.106;11.618;2023-08-24T11:03:59;33.70;58.20
27368;DHT22;14839;48.106;11.618;2023-08-24T11:06:25;33.30;59.20
27368;DHT22;14839;48.106;11.618;2023-08-24T11:09:08;33.40;57.90
27368;DHT22;14839;48.106;11.618;2023-08-24T11:12:01;33.70;56.00
27368;DHT22;14839;48.106;11.618;2023-08-24T11:14:27;33.60;55.40
27368;DHT22;14839;48.106;11.618;2023-08-24T11:17:18;33.50;54.80
27368;DHT22;14839;48.106;11.618;2023-08-24T11:19:52;33.40;55.70
27368;DHT22;14839;48.106;11.618;2023-08-24T11:22:18;33.30;57.50
27368;DHT22;14839;48.106;11.618;2023-08-24T11:24:44;33.60;56.30
27368;DHT22;14839;48.106;11.618;2023-08-24T11:27:10;33.70;55.50
27368;DHT22;14839;48.106;11.618;2023-08-24T11:29:35;33.50;55.50
27368;DHT22;14839;48.106;11.618;2023-08-24T11:32:02;33.40;55.00
27368;DHT22;14839;48.106;11.618;2023-08-24T11:34:28;33.40;54.20
27368;DHT22;14839;48.106;11.618;2023-08-24T11:36:53;33.40;53.60
27368;DHT22;14839;48.106;11.618;2023-08-24T11:39:21;33.30;53.80
27368;DHT22;14839;48.106;11.618;2023-08-24T11:42:01;33.60;52.40
27368;DHT22;14839;48.106;11.618;2023-08-24T11:44:28;33.50;52.30
27368;DHT22;14839;48.106;11.618;2023-08-24T11:46:56;33.70;51.40
27368;DHT22;14839;48.106;11.618;2023-08-24T11:49:22;34.00;54.10
27368;DHT22;14839;48.106;11.618;2023-08-24T11:51:48;34.10;52.30
27368;DHT22;14839;48.106;11.618;2023-08-24T11:54:16;33.90;52.00
27368;DHT22;14839;48.106;11.618;2023-08-24T11:56:43;33.40;52.30
27368;DHT22;14839;48.106;11.618;2023-08-24T11:59:12;33.40;51.90
27368;DHT22;14839;48.106;11.618;2023-08-24T12:01:39;33.30;52.20
27368;DHT22;14839;48.106;11.618;2023-08-24T12:04:06;33.60;51.10
27368;DHT22;14839;48.106;11.618;2023-08-24T12:06:31;33.90;51.00
27368;DHT22;14839;48.106;11.618;2023-08-24T12:08:57;33.70;52.00
27368;DHT22;14839;48.106;11.618;2023-08-24T12:11:22;33.70;52.20
27368;DHT22;14839;48.106;11.618;2023-08-24T12:13:52;33.60;52.00
27368;DHT22;14839;48.106;11.618;2023-08-24T12:16:20;33.70;52.60
27368;DHT22;14839;48.106;11.618;2023-08-24T12:18:57;33.90;53.00
27368;DHT22;14839;48.106;11.618;2023-08-24T12:21:25;33.90;51.30
27368;DHT22;14839;48.106;11.618;2023-08-24T12:24:05;33.50;50.70
27368;DHT22;14839;48.106;11.618;2023-08-24T12:26:35;33.50;53.20
27368;DHT22;14839;48.106;11.618;2023-08-24T12:29:03;33.20;52.20
27368;DHT22;14839;48.106;11.618;2023-08-24T12:31:30;33.10;51.60
27368;DHT22;14839;48.106;11.618;2023-08-24T12:34:01;33.50;52.30
27368;DHT22;14839;48.106;11.618;2023-08-24T12:36:27;33.70;51.30
27368;DHT22;14839;48.106;11.618;2023-08-24T12:38:53;33.60;50.40
27368;DHT22;14839;48.106;11.618;2023-08-24T12:41:19;33.70;51.10
27368;DHT22;14839;48.106;11.618;2023-08-24T12:43:44;33.90;53.50
27368;DHT22;14839;48.106;11.618;2023-08-24T12:46:10;33.90;53.30
27368;DHT22;14839;48.106;11.618;2023-08-24T12:48:35;33.80;55.30
27368;DHT22;14839;48.106;11.618;2023-08-24T12:51:01;33.90;52.90
27368;DHT22;14839;48.106;11.618;2023-08-24T12:53:27;34.00;53.60
27368;DHT22;14839;48.106;11.618;2023-08-24T12:55:52;33.90;52.90
27368;DHT22;14839;48.106;11.618;2023-08-24T12:58:18;33.90;54.20
27368;DHT22;14839;48.106;11.618;2023-08-24T13:00:45;33.80;52.40
27368;DHT22;14839;48.106;11.618;2023-08-24T13:03:11;33.60;52.40
27368;DHT22;14839;48.106;11.618;2023-08-24T13:05:37;33.70;52.30
27368;DHT22;14839;48.106;11.618;2023-08-24T13:08:02;33.50;52.60
27368;DHT22;14839;48.106;11.618;2023-08-24T13:10:28;33.50;52.40
27368;DHT22;14839;48.106;11.618;2023-08-24T13:12:53;33.50;51.00
27368;DHT22;14839;48.106;11.618;2023-08-24T13:15:19;33.50;52.20
27368;DHT22;14839;48.106;11.618;2023-08-24T13:17:46;33.40;52.60
27368;DHT22;14839;48.106;11.618;2023-08-24T13:20:11;33.60;53.20
27368;DHT22;14839;48.106;11.618;2023-08-24T13:22:37;33.80;52.30
27368;DHT22;14839;48.106;11.618;2023-08-24T13:25:03;33.70;53.20
27368;DHT22;14839;48.106;11.618;2023-08-24T13:27:28;33.80;52.40
27368;DHT22;14839;48.106;11.618;2023-08-24T13:29:59;33.70;51.30
27368;DHT22;14839;48.106;11.618;2023-08-24T13:32:25;33.70;51.60
27368;DHT22;14839;48.106;11.618;2023-08-24T13:34:50;33.70;51.10
27368;DHT22;14839;48.106;11.618;2023-08-24T13:37:18;33.70;50.80
27368;DHT22;14839;48.106;11.618;2023-08-24T13:39:43;33.90;51.00
27368;DHT22;14839;48.106;11.618;2023-08-24T13:42:09;34.10;50.70
27368;DHT22;14839;48.106;11.618;2023-08-24T13:44:35;34.10;51.00
27368;DHT22;14839;48.106;11.618;2023-08-24T13:47:00;34.10;51.30
27368;DHT22;14839;48.106;11.618;2023-08-24T13:49:26;33.80;51.70
27368;DHT22;14839;48.106;11.618;2023-08-24T13:51:51;33.70;51.40
27368;DHT22;14839;48.106;11.618;2023-08-24T13:54:18;33.60;51.70
27368;DHT22;14839;48.106;11.618;2023-08-24T13:56:45;33.70;52.00
27368;DHT22;14839;48.106;11.618;2023-08-24T13:59:14;33.90;52.40
27368;DHT22;14839;48.106;11.618;2023-08-24T14:01:40;34.10;51.90
27368;DHT22;14839;48.106;11.618;2023-08-24T14:04:06;34.30;51.70
27368;DHT22;14839;48.106;11.618;2023-08-24T14:06:33;34.30;51.00
27368;DHT22;14839;48.106;11.618;2023-08-24T14:09:00;34.10;51.60
27368;DHT22;14839;48.106;11.618;2023-08-24T14:11:27;34.10;51.00
27368;DHT22;14839;48.106;11.618;2023-08-24T14:13:53;34.10;50.50
27368;DHT22;14839;48.106;11.618;2023-08-24T14:16:18;33.80;51.60
27368;DHT22;14839;48.106;11.618;2023-08-24T14:18:45;33.70;53.90
27368;DHT22;14839;48.106;11.618;2023-08-24T14:21:11;33.70;53.60
27368;DHT22;14839;48.106;11.618;2023-08-24T14:23:37;33.50;53.90
27368;DHT22;14839;48.106;11.618;2023-08-24T14:26:03;33.60;54.50
27368;DHT22;14839;48.106;11.618;2023-08-24T14:28:50;33.70;54.10
27368;DHT22;14839;48.106;11.618;2023-08-24T14:31:29;33.90;53.90
27368;DHT22;14839;48.106;11.618;2023-08-24T14:33:55;33.90;55.00
27368;DHT22;14839;48.106;11.618;2023-08-24T14:36:22;34.00;54.50
27368;DHT22;14839;48.106;11.618;2023-08-24T14:38:48;33.80;54.20
27368;DHT22;14839;48.106;11.618;2023-08-24T14:41:15;33.60;54.40
27368;DHT22;14839;48.106;11.618;2023-08-24T14:43:41;33.50;54.40
27368;DHT22;14839;48.106;11.618;2023-08-24T14:46:07;33.50;55.00
27368;DHT22;14839;48.106;11.618;2023-08-24T14:48:33;33.40;54.70
27368;DHT22;14839;48.106;11.618;2023-08-24T14:50:59;33.30;54.80
27368;DHT22;14839;48.106;11.618;2023-08-24T14:53:26;33.50;54.20
27368;DHT22;14839;48.106;11.618;2023-08-24T14:55:55;33.60;54.10
27368;DHT22;14839;48.106;11.618;2023-08-24T14:58:22;33.70;54.70
27368;DHT22;14839;48.106;11.618;2023-08-24T15:00:49;33.90;54.20
27368;DHT22;14839;48.106;11.618;2023-08-24T15:03:16;33.90;55.00
27368;DHT22;14839;48.106;11.618;2023-08-24T15:05:46;34.00;52.90
27368;DHT22;14839;48.106;11.618;2023-08-24T15:08:13;34.10;51.90
27368;DHT22;14839;48.106;11.618;2023-08-24T15:10:40;34.00;53.30
27368;DHT22;14839;48.106;11.618;2023-08-24T15:13:06;33.90;54.50
27368;DHT22;14839;48.106;11.618;2023-08-24T15:15:35;34.00;54.40
27368;DHT22;14839;48.106;11.618;2023-08-24T15:18:01;34.00;53.20
27368;DHT22;14839;48.106;11.618;2023-08-24T15:20:27;34.00;53.60
27368;DHT22;14839;48.106;11.618;2023-08-24T15:22:52;34.00;53.50
27368;DHT22;14839;48.106;11.618;2023-08-24T15:25:18;34.00;53.20
27368;DHT22;14839;48.106;11.618;2023-08-24T15:27:43;33.90;53.60
27368;DHT22;14839;48.106;11.618;2023-08-24T15:30:09;34.00;53.90
27368;DHT22;14839;48.106;11.618;2023-08-24T15:32:35;34.00;54.40
27368;DHT22;14839;48.106;11.618;2023-08-24T15:35:01;33.90;54.70
27368;DHT22;14839;48.106;11.618;2023-08-24T15:37:28;34.00;54.80
27368;DHT22;14839;48.106;11.618;2023-08-24T15:39:55;34.10;54.40
27368;DHT22;14839;48.106;11.618;2023-08-24T15:42:21;34.10;56.30
27368;DHT22;14839;48.106;11.618;2023-08-24T15:44:46;33.80;57.50
27368;DHT22;14839;48.106;11.618;2023-08-24T15:47:12;33.90;58.20
27368;DHT22;14839;48.106;11.618;2023-08-24T15:49:37;34.00;56.10
27368;DHT22;14839;48.106;11.618;2023-08-24T15:52:03;33.90;56.40
27368;DHT22;14839;48.106;11.618;2023-08-24T15:54:29;33.70;57.30
27368;DHT22;14839;48.106;11.618;2023-08-24T15:56:55;33.80;58.20
27368;DHT22;14839;48.106;11.618;2023-08-24T15:59:21;33.60;57.50
27368;DHT22;14839;48.106;11.618;2023-08-24T16:01:46;33.50;57.90
27368;DHT22;14839;48.106;11.618;2023-08-24T16:04:13;33.60;58.10
27368;DHT22;14839;48.106;11.618;2023-08-24T16:06:39;33.60;58.10
27368;DHT22;14839;48.106;11.618;2023-08-24T16:09:05;33.50;58.80
27368;DHT22;14839;48.106;11.618;2023-08-24T16:11:30;33.40;59.10
27368;DHT22;14839;48.106;11.618;2023-08-24T16:13:56;33.20;59.70
27368;DHT22;14839;48.106;11.618;2023-08-24T16:16:22;33.20;59.80
27368;DHT22;14839;48.106;11.618;2023-08-24T16:18:48;33.40;59.50
27368;DHT22;14839;48.106;11.618;2023-08-24T16:21:13;33.50;57.90
27368;DHT22;14839;48.106;11.618;2023-08-24T16:23:39;33.60;57.50
27368;DHT22;14839;48.106;11.618;2023-08-24T16:26:04;33.50;57.50
27368;DHT22;14839;48.106;11.618;2023-08-24T16:28:30;33.40;58.20
27368;DHT22;14839;48.106;11.618;2023-08-24T16:30:55;33.30;59.10
27368;DHT22;14839;48.106;11.618;2023-08-24T16:33:21;33.40;59.80
27368;DHT22;14839;48.106;11.618;2023-08-24T16:35:47;33.00;60.70
27368;DHT22;14839;48.106;11.618;2023-08-24T16:38:13;32.70;61.60
27368;DHT22;14839;48.106;11.618;2023-08-24T16:40:39;32.60;62.60
27368;DHT22;14839;48.106;11.618;2023-08-24T16:43:05;32.60;61.70
27368;DHT22;14839;48.106;11.618;2023-08-24T16:45:31;32.60;61.10
27368;DHT22;14839;48.106;11.618;2023-08-24T16:47:57;32.60;61.90
27368;DHT22;14839;48.106;11.618;2023-08-24T16:50:22;32.70;60.80
27368;DHT22;14839;48.106;11.618;2023-08-24T16:52:48;32.60;60.40
27368;DHT22;14839;48.106;11.618;2023-08-24T16:55:14;32.60;61.30
27368;DHT22;14839;48.106;11.618;2023-08-24T16:57:40;32.20;63.50
27368;DHT22;14839;48.106;11.618;2023-08-24T17:00:07;32.10;64.60
27368;DHT22;14839;48.106;11.618;2023-08-24T17:02:33;31.90;65.60
27368;DHT22;14839;48.106;11.618;2023-08-24T17:05:01;31.70;66.40
27368;DHT22;14839;48.106;11.618;2023-08-24T17:07:26;31.60;67.30
27368;DHT22;14839;48.106;11.618;2023-08-24T17:09:52;31.40;67.30
27368;DHT22;14839;48.106;11.618;2023-08-24T17:12:17;31.30;67.90
27368;DHT22;14839;48.106;11.618;2023-08-24T17:14:44;31.40;68.00
27368;DHT22;14839;48.106;11.618;2023-08-24T17:17:09;31.30;68.20
27368;DHT22;14839;48.106;11.618;2023-08-24T17:19:35;31.20;68.60
27368;DHT22;14839;48.106;11.618;2023-08-24T17:22:00;31.10;69.10
27368;DHT22;14839;48.106;11.618;2023-08-24T17:24:26;31.00;69.80
27368;DHT22;14839;48.106;11.618;2023-08-24T17:26:52;31.00;70.00
27368;DHT22;14839;48.106;11.618;2023-08-24T17:29:18;30.90;70.30
27368;DHT22;14839;48.106;11.618;2023-08-24T17:31:44;30.80;70.60
27368;DHT22;14839;48.106;11.618;2023-08-24T17:34:09;30.70;71.20
27368;DHT22;14839;48.106;11.618;2023-08-24T17:36:35;30.70;71.30
27368;DHT22;14839;48.106;11.618;2023-08-24T17:39:01;30.60;71.50
27368;DHT22;14839;48.106;11.618;2023-08-24T17:41:26;30.60;71.80
27368;DHT22;14839;48.106;11.618;2023-08-24T17:43:53;30.60;71.60
27368;DHT22;14839;48.106;11.618;2023-08-24T17:46:19;30.50;71.90
27368;DHT22;14839;48.106;11.618;2023-08-24T17:48:44;30.40;72.70
27368;DHT22;14839;48.106;11.618;2023-08-24T17:51:10;30.30;72.80
27368;DHT22;14839;48.106;11.618;2023-08-24T17:53:35;30.30;72.50
27368;DHT22;14839;48.106;11.618;2023-08-24T17:56:01;30.30;72.40
27368;DHT22;14839;48.106;11.618;2023-08-24T17:58:27;30.20;73.00
27368;DHT22;14839;48.106;11.618;2023-08-24T18:00:54;30.20;73.40
27368;DHT22;14839;48.106;11.618;2023-08-24T18:03:20;30.10;74.00
27368;DHT22;14839;48.106;11.618;2023-08-24T18:05:46;30.00;74.80
27368;DHT22;14839;48.106;11.618;2023-08-24T18:08:14;30.00;75.20
27368;DHT22;14839;48.106;11.618;2023-08-24T18:10:40;29.80;76.10
27368;DHT22;14839;48.106;11.618;2023-08-24T18:13:06;29.70;77.00
27368;DHT22;14839;48.106;11.618;2023-08-24T18:15:35;29.60;77.20
27368;DHT22;14839;48.106;11.618;2023-08-24T18:18:02;29.60;77.90
27368;DHT22;14839;48.106;11.618;2023-08-24T18:20:28;29.60;79.30
27368;DHT22;14839;48.106;11.618;2023-08-24T18:22:53;29.50;80.60
27368;DHT22;14839;48.106;11.618;2023-08-24T18:25:19;29.40;81.50
27368;DHT22;14839;48.106;11.618;2023-08-24T18:27:44;29.30;81.80
27368;DHT22;14839;48.106;11.618;2023-08-24T18:30:10;29.20;82.60
27368;DHT22;14839;48.106;11.618;2023-08-24T18:32:36;29.10;83.20
27368;DHT22;14839;48.106;11.618;2023-08-24T18:35:02;29.00;83.30
27368;DHT22;14839;48.106;11.618;2023-08-24T18:37:28;28.90;83.80
27368;DHT22;14839;48.106;11.618;2023-08-24T18:39:54;28.70;84.10
27368;DHT22;14839;48.106;11.618;2023-08-24T18:42:20;28.50;85.00
27368;DHT22;14839;48.106;11.618;2023-08-24T18:44:46;28.60;84.80
27368;DHT22;14839;48.106;11.618;2023-08-24T18:47:12;28.30;85.70
27368;DHT22;14839;48.106;11.618;2023-08-24T18:49:37;28.30;85.70
27368;DHT22;14839;48.106;11.618;2023-08-24T18:52:03;28.20;86.20
27368;DHT22;14839;48.106;11.618;2023-08-24T18:54:29;28.20;86.00
27368;DHT22;14839;48.106;11.618;2023-08-24T18:56:56;28.10;86.20
27368;DHT22;14839;48.106;11.618;2023-08-24T18:59:21;27.90;86.60
27368;DHT22;14839;48.106;11.618;2023-08-24T19:01:48;27.90;87.20
27368;DHT22;14839;48.106;11.618;2023-08-24T19:04:14;27.70;88.00
27368;DHT22;14839;48.106;11.618;2023-08-24T19:06:39;27.60;88.00
27368;DHT22;14839;48.106;11.618;2023-08-24T19:09:05;27.60;88.30
27368;DHT22;14839;48.106;11.618;2023-08-24T19:11:31;27.60;88.30
27368;DHT22;14839;48.106;11.618;2023-08-24T19:13:57;27.50;88.30
27368;DHT22;14839;48.106;11.618;2023-08-24T19:16:23;27.40;88.90
27368;DHT22;14839;48.106;11.618;2023-08-24T19:18:49;27.30;89.00